Time;durP1;ratioP1;P1;durP2;ratioP2;P2;SDS_P1;SDS_P2;PMS_P1;PMS_P2;Temp;Humidity;BMP_temperature;BMP_pressure;BME280_temperature;BME280_humidity;BME280_pressure;Samples;Min_cycle;Max_cycle;Signal;HPM_P1;HPM_P2
2023/07/18 00:01:45;;;;;;;37.13;34.63;;;;;;;11.29;100.00;101126.69;5073416;28;20024;-89
2023/07/18 00:04:10;;;;;;;41.35;38.45;;;;;;;11.34;100.00;101137.78;5058184;28;20044;-91
2023/07/18 00:06:40;;;;;;;46.72;43.25;;;;;;;11.24;100.00;101121.81;5075422;28;20399;-91
2023/07/18 00:09:06;;;;;;;49.72;45.88;;;;;;;11.15;100.00;101114.78;5074458;28;20062;-88
2023/07/18 00:11:32;;;;;;;54.55;50.03;;;;;;;11.34;100.00;101129.72;5073818;28;20395;-92
2023/07/18 00:13:57;;;;;;;59.05;53.85;;;;;;;11.32;100.00;101132.56;5074079;28;20032;-92
2023/07/18 00:16:23;;;;;;;62.25;56.50;;;;;;;11.35;100.00;101123.28;5074123;28;20048;-90
2023/07/18 00:18:50;;;;;;;58.60;53.45;;;;;;;11.26;100.00;101111.72;5040520;28;20042;-87
2023/07/18 00:21:16;;;;;;;60.40;54.95;;;;;;;11.38;100.00;101129.19;5073011;28;20426;-90
2023/07/18 00:23:42;;;;;;;60.47;55.00;;;;;;;11.19;100.00;101094.56;5057327;28;20097;-90
2023/07/18 00:26:08;;;;;;;82.65;72.60;;;;;;;11.36;100.00;101117.75;5056945;28;20028;-93
2023/07/18 00:28:34;;;;;;;76.60;68.35;;;;;;;11.37;100.00;101122.13;5040715;28;20101;-90
2023/07/18 00:31:02;;;;;;;79.05;70.40;;;;;;;11.36;100.00;101115.06;5056550;28;20437;-90
2023/07/18 00:33:28;;;;;;;82.20;72.25;;;;;;;11.26;100.00;101100.94;5040804;28;20040;-91
2023/07/18 00:35:54;;;;;;;56.28;51.50;;;;;;;11.34;100.00;101111.69;5074866;28;20059;-89
2023/07/18 00:38:20;;;;;;;59.28;54.00;;;;;;;11.29;100.00;101097.06;5072630;28;20044;-91
2023/07/18 00:40:49;;;;;;;61.58;55.92;;;;;;;11.36;100.00;101107.00;5040213;28;20032;-92
2023/07/18 00:43:16;;;;;;;63.00;57.08;;;;;;;11.37;100.00;101097.88;5056464;28;20632;-90
2023/07/18 00:45:43;;;;;;;64.38;58.22;;;;;;;11.32;100.00;101078.72;5040315;28;20056;-89
2023/07/18 00:48:09;;;;;;;67.22;60.65;;;;;;;11.35;100.00;101078.41;5056849;28;20033;-88
2023/07/18 00:50:35;;;;;;;67.60;60.95;;;;;;;11.41;100.00;101077.69;5053246;28;20048;-90
2023/07/18 00:53:04;;;;;;;72.78;65.22;;;;;;;11.45;100.00;101076.31;5036590;28;20167;-89
2023/07/18 00:55:34;;;;;;;81.85;72.18;;;;;;;11.30;100.00;101051.16;5054445;28;20037;-91
2023/07/18 00:58:02;;;;;;;71.45;64.13;;;;;;;11.30;100.00;101040.38;5022135;28;20047;-92
2023/07/18 01:00:28;;;;;;;76.43;68.28;;;;;;;11.39;100.00;101049.25;5062071;28;20032;-89
2023/07/18 01:02:54;;;;;;;76.75;68.47;;;;;;;11.50;100.00;101061.50;5072800;28;20085;-87
2023/07/18 01:05:20;;;;;;;74.07;66.30;;;;;;;11.41;100.00;101048.06;5074343;28;20039;-92
2023/07/18 01:07:46;;;;;;;76.05;67.90;;;;;;;11.46;100.00;101058.34;5056177;28;20386;-89
2023/07/18 01:10:23;;;;;;;77.25;68.85;;;;;;;11.39;100.00;101049.25;5055607;28;20474;-93
2023/07/18 01:12:51;;;;;;;73.85;66.10;;;;;;;11.43;100.00;101064.03;5072969;28;20045;-89
2023/07/18 01:15:21;;;;;;;75.72;67.65;;;;;;;11.31;100.00;101030.44;5073144;28;20048;-86
2023/07/18 01:17:52;;;;;;;73.97;66.22;;;;;;;11.47;100.00;101056.47;5023997;28;20471;-90
2023/07/18 01:20:23;;;;;;;76.10;67.95;;;;;;;11.38;100.00;101039.53;5039219;28;20028;-90
2023/07/18 01:22:51;;;;;;;78.88;70.22;;;;;;;11.44;100.00;101041.50;5040408;28;20471;-90
2023/07/18 01:25:18;;;;;;;75.78;67.72;;;;;;;11.40;100.00;101030.22;5042447;28;20064;-88
2023/07/18 01:27:48;;;;;;;77.13;68.78;;;;;;;11.56;100.00;101048.16;5075462;28;20090;-86
2023/07/18 01:30:17;;;;;;;84.05;73.20;;;;;;;11.52;100.00;101036.09;5039582;28;20041;-88
2023/07/18 01:32:50;;;;;;;87.78;75.10;;;;;;;11.58;100.00;101043.44;5056421;28;20471;-87
2023/07/18 01:35:23;;;;;;;97.25;79.47;;;;;;;11.47;100.00;101008.00;5040787;28;20086;-86
2023/07/18 01:37:48;;;;;;;96.68;79.03;;;;;;;11.59;100.00;101026.28;5055897;28;20105;-90
2023/07/18 01:40:19;;;;;;;99.72;80.72;;;;;;;11.60;100.00;101019.03;5072437;28;20467;-88
2023/07/18 01:42:46;;;;;;;96.70;79.18;;;;;;;11.60;100.00;101014.50;5056486;28;20086;-91
2023/07/18 01:45:12;;;;;;;93.57;77.93;;;;;;;11.58;100.00;101004.91;5055868;28;20135;-87
2023/07/18 01:47:41;;;;;;;105.80;83.18;;;;;;;11.62;100.00;101012.47;5073522;28;20040;-92
2023/07/18 01:50:07;;;;;;;104.60;82.90;;;;;;;11.58;100.00;100994.97;5056334;28;20451;-88
2023/07/18 01:52:34;;;;;;;105.22;83.30;;;;;;;11.59;100.00;100991.28;5072918;28;20047;-86
2023/07/18 01:55:00;;;;;;;141.88;99.68;;;;;;;11.64;100.00;100991.59;5055932;28;20045;-88
2023/07/18 01:57:30;;;;;;;104.70;82.88;;;;;;;11.58;100.00;100986.06;5039130;28;20467;-87
2023/07/18 01:59:59;;;;;;;138.88;98.28;;;;;;;11.56;100.00;100982.69;5072047;28;20067;-85
2023/07/18 02:02:27;;;;;;;101.30;81.53;;;;;;;11.53;100.00;100981.19;5072381;28;20055;-88
2023/07/18 02:04:53;;;;;;;103.22;82.30;;;;;;;11.59;100.00;100991.28;5057465;28;20450;-90
2023/07/18 02:07:18;;;;;;;102.57;82.22;;;;;;;11.63;100.00;100991.75;5059638;28;20063;-92
2023/07/18 02:09:44;;;;;;;94.55;78.60;;;;;;;11.53;100.00;100965.03;5059123;28;20085;-86
2023/07/18 02:12:10;;;;;;;92.40;77.32;;;;;;;11.62;100.00;100968.53;5077473;28;20040;-89
2023/07/18 02:14:36;;;;;;;85.53;73.95;;;;;;;11.41;100.00;100940.38;5077286;28;20044;-87
2023/07/18 02:17:03;;;;;;;84.30;73.53;;;;;;;11.61;100.00;100970.38;5042918;28;20032;-90
2023/07/18 02:19:28;;;;;;;86.07;74.45;;;;;;;11.71;100.00;100978.22;5039302;28;20372;-87
2023/07/18 02:21:54;;;;;;;93.55;78.13;;;;;;;11.68;100.00;100959.75;5056182;28;20037;-88
2023/07/18 02:24:23;;;;;;;89.25;75.70;;;;;;;11.64;100.00;100950.31;5039718;28;20036;-90
2023/07/18 02:26:54;;;;;;;93.05;77.93;;;;;;;11.65;100.00;100952.03;5039418;28;20383;-87
2023/07/18 02:29:20;;;;;;;93.43;77.93;;;;;;;11.66;100.00;100951.81;5055030;28;20048;-89
2023/07/18 02:31:46;;;;;;;85.68;74.10;;;;;;;11.70;100.00;100954.19;5077152;28;20020;-86
2023/07/18 02:34:12;;;;;;;85.88;74.20;;;;;;;11.73;100.00;100951.13;5038550;28;20084;-89
2023/07/18 02:36:38;;;;;;;80.72;71.78;;;;;;;11.58;100.00;100924.13;5055749;28;20127;-90
2023/07/18 02:39:07;;;;;;;80.00;71.22;;;;;;;11.66;100.00;100941.06;5070053;28;20039;-88
2023/07/18 02:41:39;;;;;;;81.10;71.88;;;;;;;11.77;100.00;100944.34;5075608;28;20386;-86
2023/07/18 02:44:07;;;;;;;83.63;73.28;;;;;;;11.79;100.00;100943.16;5076420;28;20066;-89
2023/07/18 02:46:35;;;;;;;87.55;75.18;;;;;;;11.81;100.00;100935.75;5059759;28;20028;-89
2023/07/18 02:49:03;;;;;;;85.68;74.22;;;;;;;11.76;100.00;100911.19;5076576;28;20115;-87
2023/07/18 02:51:28;;;;;;;89.22;76.00;;;;;;;11.83;100.00;100920.25;5058573;28;20524;-87
2023/07/18 02:53:56;;;;;;;93.68;78.03;;;;;;;11.70;100.00;100901.16;5059105;28;20036;-93
2023/07/18 02:56:22;;;;;;;95.95;79.20;;;;;;;11.72;100.00;100890.19;5075871;28;20032;-89
2023/07/18 02:58:49;;;;;;;93.70;78.10;;;;;;;11.79;100.00;100891.97;5058384;28;20437;-88
2023/07/18 03:01:14;;;;;;;93.07;77.85;;;;;;;11.80;100.00;100882.88;5057857;28;20041;-90
2023/07/18 03:03:40;;;;;;;97.78;80.03;;;;;;;11.86;100.00;100898.34;5075226;28;20024;-92
2023/07/18 03:06:11;;;;;;;95.47;79.20;;;;;;;11.81;100.00;100895.34;5058830;28;20032;-88
2023/07/18 03:08:42;;;;;;;102.13;82.20;;;;;;;11.85;100.00;100901.19;5074939;28;20085;-88
2023/07/18 03:11:08;;;;;;;106.97;83.82;;;;;;;11.81;100.00;100891.81;5068959;28;20037;-85
2023/07/18 03:13:34;;;;;;;101.05;81.65;;;;;;;11.83;100.00;100879.00;5057502;28;20119;-87
2023/07/18 03:15:59;;;;;;;99.20;80.72;;;;;;;11.84;100.00;100878.78;5074455;28;20123;-90
2023/07/18 03:18:26;;;;;;;91.28;76.90;;;;;;;11.88;100.00;100885.53;5074531;28;20025;-85
2023/07/18 03:20:52;;;;;;;96.57;79.45;;;;;;;11.94;100.00;100885.84;5074284;28;20021;-90
2023/07/18 03:23:17;;;;;;;97.13;79.78;;;;;;;11.93;100.00;100881.44;5074401;28;20028;-86
2023/07/18 03:25:43;;;;;;;101.72;81.72;;;;;;;11.97;100.00;100883.63;5057670;28;20040;-86
2023/07/18 03:28:09;;;;;;;102.28;82.18;;;;;;;11.94;100.00;100873.19;5075066;28;20029;-89
2023/07/18 03:30:36;;;;;;;94.22;78.00;;;;;;;12.02;100.00;100880.38;5076860;28;20054;-87
2023/07/18 03:33:01;;;;;;;80.18;71.43;;;;;;;12.01;100.00;100870.59;5074319;28;20467;-85
2023/07/18 03:35:28;;;;;;;78.55;70.00;;;;;;;11.97;100.00;100851.28;5073760;28;20047;-89
2023/07/18 03:37:54;;;;;;;76.30;68.15;;;;;;;11.85;100.00;100834.69;5073047;28;20050;-95
2023/07/18 03:40:20;;;;;;;75.63;67.63;;;;;;;12.05;100.00;100859.28;5075710;28;20028;-88
2023/07/18 03:42:50;;;;;;;72.97;65.45;;;;;;;12.05;100.00;100856.59;5057425;28;20390;-87
2023/07/18 03:45:16;;;;;;;76.63;68.43;;;;;;;12.08;100.00;100855.38;5041843;28;20501;-89
2023/07/18 03:47:43;;;;;;;70.30;63.20;;;;;;;12.15;100.00;100861.72;5072633;28;20060;-89
2023/07/18 03:50:14;;;;;;;66.53;60.10;;;;;;;12.15;100.00;100850.94;5040664;28;20047;-88
2023/07/18 03:52:40;;;;;;;70.80;63.65;;;;;;;12.15;100.00;100845.56;5074605;28;20032;-91
2023/07/18 03:55:08;;;;;;;77.50;69.15;;;;;;;12.20;100.00;100839.59;5041241;28;20471;-89
2023/07/18 03:57:34;;;;;;;74.40;66.55;;;;;;;12.28;100.00;100844.91;5054633;28;20028;-89
2023/07/18 04:00:00;;;;;;;85.18;73.80;;;;;;;12.28;100.00;100851.13;5056740;28;20036;-90
2023/07/18 04:02:28;;;;;;;73.10;65.53;;;;;;;12.32;100.00;100844.34;5060084;28;20453;-89
2023/07/18 04:04:54;;;;;;;76.28;68.22;;;;;;;12.29;100.00;100836.63;5059173;28;20543;-88
2023/07/18 04:07:23;;;;;;;88.03;72.97;;;;;;;12.30;100.00;100832.06;5058189;28;20100;-87
2023/07/18 04:09:51;;;;;;;79.22;70.60;;;;;;;12.33;100.00;100842.47;5058750;28;20462;-87
2023/07/18 04:12:17;;;;;;;75.95;67.88;;;;;;;12.41;100.00;100846.94;5074136;28;20028;-88
2023/07/18 04:14:43;;;;;;;86.70;74.43;;;;;;;12.36;100.00;100842.13;5057274;28;20043;-90
2023/07/18 04:17:10;;;;;;;75.97;67.95;;;;;;;12.44;100.00;100844.72;5074791;28;20028;-90
2023/07/18 04:19:36;;;;;;;84.63;74.00;;;;;;;12.37;100.00;100822.22;5039084;28;20524;-89
2023/07/18 04:22:04;;;;;;;73.05;65.53;;;;;;;12.45;100.00;100834.78;5057234;28;20020;-89
2023/07/18 04:24:31;;;;;;;74.20;66.45;;;;;;;12.48;100.00;100835.22;5070216;28;20094;-89
2023/07/18 04:26:56;;;;;;;79.40;70.57;;;;;;;12.39;100.00;100819.34;5040472;28;20509;-90
2023/07/18 04:29:24;;;;;;;89.22;76.00;;;;;;;12.27;100.00;100792.84;5072445;28;20024;-87
2023/07/18 04:31:51;;;;;;;86.95;75.18;;;;;;;12.43;100.00;100823.34;5075099;28;20067;-90
2023/07/18 04:34:18;;;;;;;94.22;78.47;;;;;;;12.44;100.00;100822.31;5053246;28;20032;-90
2023/07/18 04:36:46;;;;;;;134.38;96.30;;;;;;;12.30;100.00;100789.78;5072902;28;20107;-89
2023/07/18 04:39:11;;;;;;;138.80;98.28;;;;;;;12.44;100.00;100809.69;5072255;28;20059;-87
2023/07/18 04:41:37;;;;;;;143.18;100.45;;;;;;;12.48;100.00;100813.66;5073587;28;20475;-88
2023/07/18 04:44:03;;;;;;;138.40;98.15;;;;;;;12.45;100.00;100810.50;5074242;28;20032;-88
2023/07/18 04:46:29;;;;;;;147.98;102.40;;;;;;;12.52;100.00;100811.44;5056644;28;20082;-91
2023/07/18 04:48:54;;;;;;;153.10;104.18;;;;;;;12.44;100.00;100790.78;5053903;28;20537;-88
2023/07/18 04:51:20;;;;;;;144.02;100.72;;;;;;;12.53;100.00;100797.75;5056399;28;20067;-89
2023/07/18 04:53:46;;;;;;;140.73;99.15;;;;;;;12.53;100.00;100794.22;5039898;28;20035;-88
2023/07/18 04:56:14;;;;;;;140.23;98.80;;;;;;;12.58;100.00;100801.75;5071672;28;20041;-90
2023/07/18 04:58:40;;;;;;;128.00;93.28;;;;;;;12.58;100.00;100797.19;5052686;28;20430;-89
2023/07/18 05:01:06;;;;;;;138.00;97.30;;;;;;;12.56;100.00;100782.22;5054876;28;20051;-88
2023/07/18 05:03:32;;;;;;;132.02;95.47;;;;;;;12.50;100.00;100770.31;5039808;28;20368;-89
2023/07/18 05:06:04;;;;;;;131.00;94.82;;;;;;;12.57;100.00;100782.03;5072239;28;20071;-87
2023/07/18 05:08:29;;;;;;;124.53;92.05;;;;;;;12.61;100.00;100785.19;5056166;28;20409;-87
2023/07/18 05:11:00;;;;;;;123.28;91.63;;;;;;;12.62;100.00;100787.72;5056937;28;20028;-90
2023/07/18 05:13:26;;;;;;;114.43;87.32;;;;;;;12.58;100.00;100781.00;5056728;28;20040;-89
2023/07/18 05:15:51;;;;;;;128.10;93.15;;;;;;;12.59;100.00;100774.56;5071715;28;20049;-90
2023/07/18 05:18:18;;;;;;;111.45;86.22;;;;;;;12.36;100.00;100728.88;5055997;28;20433;-91
2023/07/18 05:20:44;;;;;;;137.07;97.55;;;;;;;12.57;100.00;100759.59;5072660;28;20364;-89
2023/07/18 05:23:09;;;;;;;128.55;93.72;;;;;;;12.54;100.00;100753.59;5056139;28;20036;-87
2023/07/18 05:25:36;;;;;;;130.55;94.50;;;;;;;12.61;100.00;100759.03;5056284;28;20028;-93
2023/07/18 05:28:02;;;;;;;127.85;93.18;;;;;;;12.59;100.00;100752.16;5070596;28;20387;-86
2023/07/18 05:30:31;;;;;;;130.02;94.40;;;;;;;12.54;100.00;100745.50;5055909;28;20123;-92
2023/07/18 05:32:56;;;;;;;134.10;96.20;;;;;;;12.47;100.00;100724.88;5056006;28;20129;-91
2023/07/18 05:35:22;;;;;;;131.02;94.60;;;;;;;12.61;100.00;100744.72;5072397;28;20523;-87
2023/07/18 05:37:48;;;;;;;126.22;92.88;;;;;;;12.60;100.00;100732.28;5072516;28;20040;-90
2023/07/18 05:40:13;;;;;;;116.43;88.53;;;;;;;12.56;100.00;100737.19;5058849;28;20596;-91
2023/07/18 05:42:41;;;;;;;122.82;91.35;;;;;;;12.51;100.00;100729.66;5043663;28;20025;-92
2023/07/18 05:45:08;;;;;;;127.63;93.35;;;;;;;12.62;100.00;100741.84;5043299;28;20044;-90
2023/07/18 05:47:37;;;;;;;127.35;93.35;;;;;;;12.53;100.00;100729.50;5059566;28;20043;-88
2023/07/18 05:50:09;;;;;;;130.50;94.90;;;;;;;12.57;100.00;100729.94;5043832;28;20460;-84
2023/07/18 05:52:36;;;;;;;125.30;92.57;;;;;;;12.61;100.00;100742.88;5040135;28;20041;-88
2023/07/18 05:55:04;;;;;;;122.43;91.15;;;;;;;12.63;100.00;100735.44;5056169;28;20051;-93
2023/07/18 05:57:33;;;;;;;114.75;87.25;;;;;;;12.71;100.00;100743.41;5052872;28;20024;-91
2023/07/18 05:59:58;;;;;;;116.82;88.28;;;;;;;12.71;100.00;100748.78;5059716;28;20531;-92
2023/07/18 06:02:24;;;;;;;107.45;84.40;;;;;;;12.76;100.00;100751.75;5042629;28;20032;-87
2023/07/18 06:04:50;;;;;;;117.38;89.00;;;;;;;12.81;100.00;100753.03;5059988;28;20028;-88
2023/07/18 06:07:16;;;;;;;114.55;87.45;;;;;;;12.87;100.00;100750.44;5059655;28;20064;-85
2023/07/18 06:09:42;;;;;;;101.43;81.60;;;;;;;12.96;100.00;100741.16;5059021;28;20033;-89
2023/07/18 06:12:08;;;;;;;106.78;83.40;;;;;;;13.05;100.00;100743.78;5058661;28;20040;-89
2023/07/18 06:14:37;;;;;;;123.50;91.75;;;;;;;13.15;100.00;100745.13;5059149;28;20048;-92
2023/07/18 06:17:05;;;;;;;113.30;87.13;;;;;;;13.26;100.00;100751.00;5044050;28;20086;-87
2023/07/18 06:19:33;;;;;;;111.72;86.22;;;;;;;13.23;100.00;100735.19;5042897;28;20029;-87
2023/07/18 06:21:59;;;;;;;105.13;83.20;;;;;;;13.40;100.00;100756.38;5076087;28;20033;-87
2023/07/18 06:24:25;;;;;;;113.03;86.38;;;;;;;13.44;100.00;100748.69;5041468;28;20040;-89
2023/07/18 06:26:55;;;;;;;107.97;84.72;;;;;;;13.50;100.00;100747.13;5042644;28;20052;-90
2023/07/18 06:29:24;;;;;;;106.53;83.93;;;;;;;13.54;100.00;100760.00;5056953;28;20033;-87
2023/07/18 06:31:56;;;;;;;78.90;70.35;;;;;;;13.52;100.00;100747.72;5075068;28;20036;-86
2023/07/18 06:34:22;;;;;;;98.82;80.50;;;;;;;13.60;100.00;100758.41;5043351;28;20041;-92
2023/07/18 06:36:48;;;;;;;94.30;78.38;;;;;;;13.46;100.00;100735.84;5059135;28;20044;-89
2023/07/18 06:39:16;;;;;;;92.22;77.50;;;;;;;13.63;100.00;100745.34;5059605;28;20032;-89
2023/07/18 06:41:43;;;;;;;80.85;72.00;;;;;;;13.72;100.00;100742.50;5038802;28;20037;-86
2023/07/18 06:44:11;;;;;;;91.30;77.45;;;;;;;13.79;100.00;100737.97;5029124;28;20097;-89
2023/07/18 06:46:37;;;;;;;84.25;73.82;;;;;;;13.93;100.00;100745.13;5042727;28;20032;-88
2023/07/18 06:49:02;;;;;;;102.10;82.20;;;;;;;14.05;100.00;100745.41;5059622;28;20482;-90
2023/07/18 06:51:28;;;;;;;91.65;77.47;;;;;;;14.07;100.00;100754.16;5058192;28;20055;-90
2023/07/18 06:53:54;;;;;;;94.63;78.90;;;;;;;14.03;100.00;100750.19;5042191;28;20036;-88
2023/07/18 06:56:21;;;;;;;89.63;76.53;;;;;;;13.84;100.00;100733.66;5054786;28;20033;-86
2023/07/18 06:58:46;;;;;;;86.28;75.00;;;;;;;13.87;100.00;100754.03;5055734;28;20037;-90
2023/07/18 07:01:15;;;;;;;95.60;78.90;;;;;;;13.84;100.00;100752.56;5022952;28;20041;-89
2023/07/18 07:03:40;;;;;;;90.53;77.03;;;;;;;13.80;100.00;100745.88;5034563;28;20040;-92
2023/07/18 07:06:10;;;;;;;93.00;78.28;;;;;;;13.93;100.00;100755.13;5063041;28;20031;-89
2023/07/18 07:08:36;;;;;;;95.10;78.93;;;;;;;13.92;100.00;100748.03;5075799;28;20036;-86
2023/07/18 07:11:06;;;;;;;96.25;79.28;;;;;;;14.05;100.00;100754.38;5081691;28;20437;-92
2023/07/18 07:13:33;;;;;;;93.22;78.45;;;;;;;14.08;100.00;100751.25;5047390;28;20064;-85
2023/07/18 07:16:00;;;;;;;93.40;77.88;;;;;;;14.19;100.00;100746.34;5062646;28;20097;-89
2023/07/18 07:18:26;;;;;;;86.00;74.82;;;;;;;14.31;100.00;100755.53;5080159;28;20040;-92
2023/07/18 07:20:53;;;;;;;80.70;71.90;;;;;;;14.35;100.00;100751.41;5084491;28;20062;-85
2023/07/18 07:23:21;;;;;;;75.85;67.90;;;;;;;14.47;100.00;100749.81;5076141;28;20068;-91
2023/07/18 07:25:50;;;;;;;73.13;65.63;;;;;;;14.48;100.00;100743.34;5043690;28;20064;-86
2023/07/18 07:28:20;;;;;;;77.60;69.35;;;;;;;14.83;100.00;100751.41;5042030;28;20036;-89
2023/07/18 07:30:59;;;;;;;69.38;62.58;;;;;;;15.23;100.00;100748.78;5075333;28;20042;-86
2023/07/18 07:33:24;;;;;;;81.93;72.75;;;;;;;15.74;100.00;100756.31;5074362;28;20036;-88
2023/07/18 07:35:51;;;;;;;72.25;65.00;;;;;;;15.86;100.00;100737.53;5042719;28;20037;-93
2023/07/18 07:38:19;;;;;;;76.63;68.68;;;;;;;15.92;100.00;100739.41;5073597;28;20447;-91
2023/07/18 07:40:45;;;;;;;87.28;75.50;;;;;;;15.92;100.00;100749.41;5047459;28;20040;-90
2023/07/18 07:43:14;;;;;;;83.97;73.60;;;;;;;15.58;100.00;100735.03;5061555;28;20039;-96
2023/07/18 07:45:40;;;;;;;82.32;73.15;;;;;;;15.33;100.00;100757.34;5059015;28;20123;-89
2023/07/18 07:48:06;;;;;;;93.28;78.25;;;;;;;15.00;100.00;100749.16;5075487;28;20060;-92
2023/07/18 07:50:35;;;;;;;103.05;82.90;;;;;;;14.82;100.00;100743.47;5075842;28;20028;-95
2023/07/18 07:53:04;;;;;;;101.03;82.10;;;;;;;14.64;100.00;100755.72;5060047;28;20041;-86
2023/07/18 07:55:31;;;;;;;123.80;91.57;;;;;;;14.60;100.00;100753.63;5077148;28;20467;-94
2023/07/18 07:58:01;;;;;;;111.18;86.28;;;;;;;14.56;100.00;100752.38;5064788;28;20029;-91
2023/07/18 08:00:27;;;;;;;114.57;87.78;;;;;;;14.54;100.00;100754.44;5050965;28;20035;-93
2023/07/18 08:02:53;;;;;;;115.28;87.80;;;;;;;14.50;100.00;100749.41;5093850;28;20020;-94
2023/07/18 08:05:21;;;;;;;107.10;84.25;;;;;;;14.54;100.00;100739.03;5062793;28;20040;-92
2023/07/18 08:07:48;;;;;;;93.82;78.45;;;;;;;14.57;100.00;100743.19;5029706;28;20024;-92
2023/07/18 08:10:17;;;;;;;92.93;78.05;;;;;;;14.67;100.00;100740.94;5058582;28;20062;-91
2023/07/18 08:12:42;;;;;;;130.75;94.30;;;;;;;14.54;100.00;100717.38;5075157;28;20064;-89
2023/07/18 08:15:08;;;;;;;132.02;95.13;;;;;;;14.77;100.00;100737.88;5046569;28;20360;-90
2023/07/18 08:17:37;;;;;;;97.03;79.57;;;;;;;14.80;100.00;100727.47;5066294;28;20072;-89
2023/07/18 08:20:04;;;;;;;96.60;79.68;;;;;;;14.90;100.00;100733.31;5035605;28;20037;-91
2023/07/18 08:22:30;;;;;;;100.68;81.63;;;;;;;14.97;100.00;100732.47;5054396;28;20028;-86
2023/07/18 08:24:57;;;;;;;45.45;42.17;;;;;;;15.06;100.00;100725.84;5054383;28;20033;-89
2023/07/18 08:27:23;;;;;;;127.20;92.82;;;;;;;15.08;100.00;100731.88;5056320;28;20033;-89
2023/07/18 08:29:49;;;;;;;108.57;85.15;;;;;;;15.05;100.00;100722.28;5053948;28;20044;-86
2023/07/18 08:32:15;;;;;;;116.93;88.53;;;;;;;15.17;100.00;100734.19;5054397;28;20029;-94
2023/07/18 08:34:41;;;;;;;131.90;94.85;;;;;;;15.33;100.00;100715.88;5055355;28;20044;-91
2023/07/18 08:37:09;;;;;;;89.28;76.45;;;;;;;15.58;100.00;100724.19;5073846;28;20379;-92
2023/07/18 08:39:37;;;;;;;92.15;78.20;;;;;;;15.69;100.00;100715.47;5028449;28;20455;-96
2023/07/18 08:42:09;;;;;;;91.30;77.70;;;;;;;15.80;100.00;100716.72;5046889;28;20074;-94
2023/07/18 08:44:36;;;;;;;114.15;86.93;;;;;;;15.95;100.00;100711.84;5058975;28;20040;-96
2023/07/18 08:47:06;;;;;;;90.13;77.25;;;;;;;16.11;100.00;100704.31;5058926;28;20032;-93
2023/07/18 08:49:35;;;;;;;82.68;73.57;;;;;;;16.13;100.00;100680.53;5043583;28;20039;-95
2023/07/18 08:52:01;;;;;;;44.00;40.83;;;;;;;16.46;100.00;100707.53;5056323;28;20033;-89
2023/07/18 08:54:28;;;;;;;42.42;39.55;;;;;;;16.60;100.00;100668.41;5040068;28;20043;-94
2023/07/18 08:56:56;;;;;;;43.28;40.17;;;;;;;16.87;100.00;100646.53;5054201;28;20555;-88
2023/07/18 08:59:22;;;;;;;49.25;45.45;;;;;;;17.43;100.00;100678.25;5027397;28;20139;-95
2023/07/18 09:01:50;;;;;;;49.00;45.40;;;;;;;17.72;100.00;100684.03;5037462;28;20036;-93
2023/07/18 09:04:16;;;;;;;56.65;52.05;;;;;;;17.85;100.00;100702.16;5067882;28;20060;-93
2023/07/18 09:06:49;;;;;;;80.13;71.65;;;;;;;17.76;100.00;100688.00;5072267;28;20116;-94
2023/07/18 09:10:19;;;;;;;103.90;83.78;;;;;;;17.90;100.00;100673.22;5075091;28;20059;-93
2023/07/18 09:13:07;;;;;;;145.07;100.32;;;;;;;17.79;100.00;100674.81;5002390;28;20057;-93
2023/07/18 09:15:34;;;;;;;130.90;94.75;;;;;;;17.63;100.00;100675.34;5058759;28;20037;-94
2023/07/18 09:18:02;;;;;;;136.80;97.10;;;;;;;17.55;100.00;100660.16;5059870;28;20467;-93
2023/07/18 09:20:29;;;;;;;144.40;99.85;;;;;;;17.95;100.00;100697.84;5043096;28;20085;-93
2023/07/18 09:22:57;;;;;;;140.15;98.53;;;;;;;18.01;100.00;100677.06;5076512;28;20104;-93
2023/07/18 09:25:24;;;;;;;134.75;96.22;;;;;;;18.14;100.00;100674.19;5041768;28;20032;-94
2023/07/18 09:27:54;;;;;;;137.85;97.88;;;;;;;18.49;100.00;100692.59;5043348;28;20040;-94
2023/07/18 09:30:21;;;;;;;137.43;97.72;;;;;;;18.80;100.00;100688.03;5039843;28;20032;-93
2023/07/18 09:32:50;;;;;;;138.63;98.40;;;;;;;19.28;100.00;100690.59;5060108;28;20037;-94
2023/07/18 09:35:16;;;;;;;130.38;95.13;;;;;;;19.60;100.00;100700.34;5039771;28;20043;-94
2023/07/18 09:37:46;;;;;;;121.25;91.78;;;;;;;19.50;100.00;100692.75;5056970;28;20108;-94
2023/07/18 09:40:18;;;;;;;126.00;93.80;;;;;;;19.26;100.00;100703.63;5024151;28;20033;-95
2023/07/18 09:42:45;;;;;;;128.65;94.93;;;;;;;19.31;100.00;100703.75;5070777;28;20042;-95
2023/07/18 09:45:12;;;;;;;122.28;92.63;;;;;;;19.69;100.00;100708.00;5060516;28;20032;-96
2023/07/18 09:47:39;;;;;;;118.43;90.97;;;;;;;19.97;100.00;100707.25;5059526;28;20059;-95
2023/07/18 09:50:05;;;;;;;127.45;94.53;;;;;;;20.03;100.00;100704.63;5077133;28;20074;-95
2023/07/18 09:52:35;;;;;;;122.90;93.20;;;;;;;20.00;100.00;100703.19;5063714;28;20044;-90
2023/07/18 09:55:04;;;;;;;118.60;91.55;;;;;;;19.82;100.00;100715.09;5057978;28;20391;-89
2023/07/18 09:57:34;;;;;;;119.97;91.85;;;;;;;19.60;100.00;100714.81;5059075;28;20044;-93
2023/07/18 10:00:05;;;;;;;119.05;91.50;;;;;;;19.43;100.00;100711.97;5042812;28;20094;-87
2023/07/18 10:02:41;;;;;;;114.40;90.03;;;;;;;19.05;100.00;100690.56;5059775;28;20481;-93
2023/07/18 10:05:14;;;;;;;109.57;87.72;;;;;;;19.06;100.00;100709.41;5071228;28;20098;-91
2023/07/18 10:07:50;;;;;;;105.28;86.03;;;;;;;19.30;100.00;100721.19;5044426;28;20127;-93
2023/07/18 10:10:20;;;;;;;125.03;93.50;;;;;;;19.49;100.00;100716.47;5057741;28;20040;-91
2023/07/18 10:12:54;;;;;;;117.43;90.47;;;;;;;19.70;100.00;100722.47;5042240;28;20047;-87
2023/07/18 10:15:21;;;;;;;114.70;89.93;;;;;;;20.10;100.00;100722.53;5063624;28;20036;-89
2023/07/18 10:17:49;;;;;;;115.70;90.47;;;;;;;20.52;100.00;100727.78;5021584;28;20033;-87
2023/07/18 10:20:23;;;;;;;97.28;83.07;;;;;;;20.93;100.00;100734.06;5056213;28;20123;-87
2023/07/18 10:22:54;;;;;;;98.78;84.13;;;;;;;21.35;100.00;100730.97;5032828;28;20049;-91
2023/07/18 10:25:20;;;;;;;87.90;78.45;;;;;;;21.51;100.00;100721.13;5066247;28;20028;-85
2023/07/18 10:27:47;;;;;;;107.35;88.47;;;;;;;21.65;100.00;100727.94;5071969;28;20037;-85
2023/07/18 10:30:17;;;;;;;96.72;83.45;;;;;;;21.59;100.00;100728.09;5056069;28;20024;-88
2023/07/18 10:32:57;;;;;;;104.43;87.03;;;;;;;21.26;100.00;100727.00;5056549;28;20037;-87
2023/07/18 10:35:24;;;;;;;97.85;84.53;;;;;;;21.10;100.00;100727.81;5039305;28;20054;-86
2023/07/18 10:37:53;;;;;;;105.20;87.25;;;;;;;21.13;100.00;100730.03;5054586;28;20037;-86
2023/07/18 10:40:33;;;;;;;114.47;90.80;;;;;;;21.57;100.00;100728.34;5085033;28;20025;-89
2023/07/18 10:42:59;;;;;;;108.25;87.93;;;;;;;22.14;100.00;100732.72;5086849;28;20039;-86
2023/07/18 10:45:26;;;;;;;98.95;85.00;;;;;;;22.35;100.00;100731.94;5072646;28;20040;-85
2023/07/18 10:47:52;;;;;;;99.72;85.40;;;;;;;22.30;100.00;100722.84;5055630;28;20036;-85
2023/07/18 10:50:18;;;;;;;100.43;85.32;;;;;;;22.52;100.00;100733.78;5088749;28;20094;-86
2023/07/18 10:52:43;;;;;;;91.15;81.25;;;;;;;22.56;100.00;100722.06;5071848;28;20035;-86
2023/07/18 10:55:09;;;;;;;100.00;85.95;;;;;;;22.51;100.00;100712.94;5087150;28;20016;-84
2023/07/18 10:57:38;;;;;;;99.50;85.70;;;;;;;22.57;100.00;100731.09;5088219;28;20111;-85
2023/07/18 11:00:06;;;;;;;100.57;86.32;;;;;;;22.41;100.00;100735.56;5087648;28;20049;-85